createdAt,value
2017-01-02T00:00:08.236Z,78.77
2017-01-02T00:01:08.236Z,79.21
2017-01-02T00:02:08.212Z,79.04
2017-01-02T00:03:08.177Z,80.23
2017-01-02T00:04:08.191Z,79.40
2017-01-02T00:05:08.098Z,78.84
2017-01-02T00:06:08.027Z,79.09
2017-01-02T00:07:08.044Z,79.73
2017-01-02T00:08:07.956Z,78.76
2017-01-02T00:09:07.919Z,78.16
2017-01-02T00:10:08.734Z,78.48
2017-01-02T00:11:08.664Z,78.69
2017-01-02T00:12:08.562Z,78.33
2017-01-02T00:13:08.448Z,78.72
2017-01-02T00:14:08.495Z,79.14
2017-01-02T00:15:08.323Z,78.58
2017-01-02T00:16:08.323Z,79.32
2017-01-02T00:17:08.390Z,80.04
2017-01-02T00:18:08.394Z,80.10
2017-01-02T00:19:08.273Z,79.36
2017-01-02T00:20:08.147Z,79.49
2017-01-02T00:21:08.233Z,80.00
2017-01-02T00:22:08.096Z,79.52
2017-01-02T00:23:07.998Z,78.55
2017-01-02T00:24:07.878Z,77.92
2017-01-02T00:25:08.762Z,77.97
2017-01-02T00:26:08.770Z,77.50
2017-01-02T00:27:08.711Z,78.35
2017-01-02T00:28:18.267Z,79.37
2017-01-02T00:29:07.731Z,79.81
2017-01-02T00:30:08.656Z,79.44
2017-01-02T00:31:08.888Z,79.23
2017-01-02T00:32:08.816Z,78.96
2017-01-02T00:33:08.619Z,78.53
2017-01-02T00:34:08.503Z,78.38
2017-01-02T00:35:08.505Z,78.71
2017-01-02T00:36:08.380Z,78.68
2017-01-02T00:37:08.240Z,78.89
2017-01-02T00:38:08.177Z,78.72
2017-01-02T00:39:08.127Z,78.92
2017-01-02T00:40:08.087Z,78.88
2017-01-02T00:41:08.027Z,78.84
2017-01-02T00:42:08.101Z,78.48
2017-01-02T00:43:08.005Z,77.85
2017-01-02T00:44:07.991Z,77.79
2017-01-02T00:45:07.987Z,77.89
2017-01-02T00:46:07.945Z,79.18
2017-01-02T00:47:07.804Z,78.96
2017-01-02T00:48:08.751Z,78.46
2017-01-02T00:49:08.901Z,78.21
2017-01-02T00:50:08.772Z,77.81
2017-01-02T00:51:08.647Z,77.91
2017-01-02T00:52:08.598Z,77.78
2017-01-02T00:53:08.486Z,77.43
2017-01-02T00:54:08.473Z,77.39
2017-01-02T00:55:08.430Z,77.19
2017-01-02T00:56:08.299Z,77.44
2017-01-02T00:57:08.235Z,77.42
2017-01-02T00:58:08.162Z,77.84
2017-01-02T00:59:08.053Z,77.84
2017-01-02T01:00:08.098Z,77.50
2017-01-02T01:01:07.718Z,77.27
2017-01-02T01:02:08.197Z,78.00
2017-01-02T01:03:08.140Z,78.81
2017-01-02T01:04:08.242Z,78.38
2017-01-02T01:05:08.173Z,78.42
2017-01-02T01:06:08.093Z,78.30
2017-01-02T01:07:08.146Z,77.67
2017-01-02T01:08:08.230Z,77.52
2017-01-02T01:09:08.188Z,77.59
2017-01-02T01:10:08.193Z,77.38
2017-01-02T01:11:08.078Z,77.57
2017-01-02T01:12:08.012Z,78.21
2017-01-02T01:13:07.852Z,78.15
2017-01-02T01:14:08.774Z,78.23
2017-01-02T01:15:08.373Z,78.03
2017-01-02T01:16:08.425Z,77.45
2017-01-02T01:17:08.903Z,77.87
2017-01-02T01:18:08.073Z,77.36
2017-01-02T01:19:07.713Z,77.26
2017-01-02T01:20:08.297Z,77.47
2017-01-02T01:21:08.188Z,77.58
2017-01-02T01:22:08.201Z,77.75
2017-01-02T01:23:08.891Z,78.01
2017-01-02T01:24:08.657Z,77.78
2017-01-02T01:25:08.734Z,77.29
2017-01-02T01:26:08.621Z,76.77
2017-01-02T01:27:08.629Z,78.11
2017-01-02T01:28:08.569Z,77.48
2017-01-02T01:29:08.459Z,77.74
2017-01-02T01:30:08.290Z,77.33
2017-01-02T01:31:08.584Z,78.01
2017-01-02T01:32:08.518Z,77.86
2017-01-02T01:33:08.438Z,77.73
2017-01-02T01:34:08.348Z,78.67
2017-01-02T01:35:07.976Z,77.65
2017-01-02T01:36:08.617Z,77.60
2017-01-02T01:37:08.636Z,76.96
2017-01-02T01:38:08.668Z,77.05
2017-01-02T01:39:08.686Z,77.73
2017-01-02T01:40:08.548Z,77.48
2017-01-02T01:41:08.585Z,77.02
2017-01-02T01:42:08.872Z,77.81
2017-01-02T01:43:08.858Z,77.94
2017-01-02T01:44:08.958Z,77.73
2017-01-02T01:45:07.922Z,76.94
2017-01-02T01:46:07.872Z,76.70
2017-01-02T01:47:08.844Z,76.15
2017-01-02T01:48:08.864Z,76.72
2017-01-02T01:49:08.733Z,77.18
2017-01-02T01:50:08.753Z,77.04
2017-01-02T01:51:08.703Z,77.32
2017-01-02T01:52:08.628Z,76.80
2017-01-02T01:53:08.486Z,76.87
2017-01-02T01:54:08.347Z,76.32
2017-01-02T01:55:08.355Z,75.93
2017-01-02T01:56:08.445Z,76.24
2017-01-02T01:57:08.461Z,76.32
2017-01-02T01:58:17.930Z,76.99
2017-01-02T01:59:07.932Z,76.77
2017-01-02T02:00:08.022Z,76.81
2017-01-02T02:01:08.051Z,77.07
2017-01-02T02:02:07.992Z,76.75
2017-01-02T02:03:07.951Z,76.95
2017-01-02T02:04:08.003Z,76.86
2017-01-02T02:05:07.991Z,76.84
2017-01-02T02:06:07.954Z,77.11
2017-01-02T02:07:07.843Z,77.01
2017-01-02T02:08:08.780Z,76.90
2017-01-02T02:09:08.772Z,77.47
2017-01-02T02:10:08.696Z,76.87
2017-01-02T02:11:08.611Z,77.37
2017-01-02T02:12:08.501Z,78.18
2017-01-02T02:13:08.395Z,78.21
2017-01-02T02:14:08.398Z,77.48
2017-01-02T02:15:08.292Z,76.99
2017-01-02T02:16:08.220Z,76.52
2017-01-02T02:17:08.366Z,77.15
2017-01-02T02:18:08.086Z,76.61
2017-01-02T02:19:08.039Z,77.16
2017-01-02T02:20:07.905Z,77.83
2017-01-02T02:21:08.868Z,77.80
2017-01-02T02:22:08.826Z,77.51
2017-01-02T02:23:08.232Z,77.37
2017-01-02T02:24:08.107Z,77.48
2017-01-02T02:25:08.127Z,78.30
2017-01-02T02:26:08.106Z,77.76
2017-01-02T02:27:08.174Z,77.42
2017-01-02T02:28:08.149Z,77.35
2017-01-02T02:29:07.911Z,77.39
2017-01-02T02:30:07.956Z,77.81
2017-01-02T02:31:07.943Z,77.49
2017-01-02T02:32:07.868Z,77.36
2017-01-02T02:33:08.688Z,78.00
2017-01-02T02:34:08.737Z,77.65
2017-01-02T02:35:08.718Z,78.03
2017-01-02T02:36:08.777Z,79.02
2017-01-02T02:37:08.762Z,78.76
2017-01-02T02:38:08.733Z,77.34
2017-01-02T02:39:08.601Z,77.11
2017-01-02T02:40:08.537Z,77.65
2017-01-02T02:41:08.517Z,77.19
2017-01-02T02:42:08.419Z,77.03
2017-01-02T02:43:08.296Z,76.29
2017-01-02T02:44:08.212Z,76.28
2017-01-02T02:45:08.131Z,76.61
2017-01-02T02:46:08.115Z,75.83
2017-01-02T02:47:08.045Z,75.90
2017-01-02T02:48:07.804Z,76.19
2017-01-02T02:49:08.159Z,77.25
2017-01-02T02:50:08.079Z,78.01
2017-01-02T02:51:08.024Z,78.15
2017-01-02T02:52:08.135Z,77.37
2017-01-02T02:53:08.145Z,77.51
2017-01-02T02:54:08.135Z,77.74
2017-01-02T02:55:08.170Z,77.07
2017-01-02T02:56:08.123Z,76.53
2017-01-02T02:57:08.128Z,76.83
2017-01-02T02:58:08.078Z,77.02
2017-01-02T02:59:08.103Z,76.58
2017-01-02T03:00:08.062Z,76.62
2017-01-02T03:01:08.013Z,76.66
2017-01-02T03:02:08.038Z,77.46
2017-01-02T03:03:07.832Z,76.84
2017-01-02T03:04:08.772Z,76.93
2017-01-02T03:05:08.644Z,76.80
2017-01-02T03:06:08.560Z,76.41
2017-01-02T03:07:08.517Z,77.38
2017-01-02T03:08:08.504Z,77.28
2017-01-02T03:09:08.476Z,77.14
2017-01-02T03:10:08.401Z,76.74
2017-01-02T03:11:08.332Z,76.82
2017-01-02T03:12:08.404Z,77.48
2017-01-02T03:13:08.367Z,76.87
2017-01-02T03:14:08.202Z,76.61
2017-01-02T03:15:08.220Z,76.49
2017-01-02T03:16:08.241Z,76.95
2017-01-02T03:17:08.333Z,76.72
2017-01-02T03:18:08.228Z,76.69
2017-01-02T03:19:08.178Z,77.30
2017-01-02T03:20:08.183Z,77.57
2017-01-02T03:21:08.162Z,77.70
2017-01-02T03:22:08.154Z,78.21
2017-01-02T03:23:08.041Z,77.24
2017-01-02T03:24:07.959Z,76.79
2017-01-02T03:25:07.967Z,76.77
2017-01-02T03:26:07.960Z,76.65
2017-01-02T03:27:07.965Z,76.78
2017-01-02T03:28:08.531Z,77.09
2017-01-02T03:29:08.519Z,76.63
2017-01-02T03:31:02.491Z,76.97
2017-01-02T03:31:08.535Z,77.19
2017-01-02T03:32:08.475Z,76.92
2017-01-02T03:33:08.383Z,76.40
2017-01-02T03:34:08.309Z,76.70
2017-01-02T03:35:08.216Z,76.97
2017-01-02T03:36:08.239Z,76.94
2017-01-02T03:37:08.495Z,76.30
2017-01-02T03:38:08.513Z,76.52
2017-01-02T03:39:08.431Z,77.39
2017-01-02T03:40:08.674Z,76.98
2017-01-02T03:41:08.687Z,76.82
2017-01-02T03:42:08.514Z,77.14
2017-01-02T03:43:08.489Z,76.83
2017-01-02T03:44:08.232Z,76.76
2017-01-02T03:45:08.831Z,76.53
2017-01-02T03:46:08.773Z,76.40
2017-01-02T03:47:08.681Z,77.54
2017-01-02T03:48:08.546Z,77.25
2017-01-02T03:49:08.587Z,76.52
2017-01-02T03:50:08.457Z,76.04
2017-01-02T03:51:08.485Z,75.78
2017-01-02T03:52:08.461Z,76.24
2017-01-02T03:53:08.474Z,75.91
2017-01-02T03:54:08.495Z,76.72
2017-01-02T03:55:08.381Z,77.39
2017-01-02T03:56:08.281Z,77.01
2017-01-02T03:57:08.379Z,76.65
2017-01-02T03:58:08.322Z,76.99
2017-01-02T03:59:08.321Z,76.52
2017-01-02T04:00:08.185Z,76.17
2017-01-02T04:01:07.999Z,75.75
2017-01-02T04:02:07.880Z,76.24
2017-01-02T04:03:08.714Z,75.76
2017-01-02T04:04:08.748Z,76.76
2017-01-02T04:05:08.774Z,76.32
2017-01-02T04:06:08.916Z,76.48
2017-01-02T04:07:07.888Z,76.37
2017-01-02T04:08:08.922Z,76.45
2017-01-02T04:09:07.956Z,76.76
2017-01-02T04:10:08.117Z,76.57
2017-01-02T04:11:08.200Z,77.23
2017-01-02T04:12:08.189Z,77.08
2017-01-02T04:13:08.128Z,77.33
2017-01-02T04:14:08.053Z,76.78
2017-01-02T04:15:07.949Z,76.79
2017-01-02T04:16:07.830Z,77.20
2017-01-02T04:17:08.850Z,77.36
2017-01-02T04:18:08.696Z,77.85
2017-01-02T04:19:08.665Z,77.64
2017-01-02T04:20:08.620Z,77.79
2017-01-02T04:21:08.532Z,77.82
2017-01-02T04:22:08.537Z,77.39
2017-01-02T04:23:08.674Z,77.15
2017-01-02T04:24:08.723Z,76.97
2017-01-02T04:25:08.801Z,76.65
2017-01-02T04:26:08.787Z,77.33
2017-01-02T04:27:08.857Z,77.32
2017-01-02T04:28:08.761Z,77.28
2017-01-02T04:29:08.665Z,76.82
2017-01-02T04:30:08.609Z,77.46
2017-01-02T04:31:08.640Z,77.54
2017-01-02T04:32:08.518Z,77.44
2017-01-02T04:33:08.461Z,77.59
2017-01-02T04:34:08.316Z,77.09
2017-01-02T04:35:08.232Z,77.23
2017-01-02T04:36:08.091Z,76.62
2017-01-02T04:37:08.074Z,75.90
2017-01-02T04:38:07.965Z,75.85
2017-01-02T04:39:07.972Z,76.12
2017-01-02T04:40:07.911Z,76.06
2017-01-02T04:41:08.896Z,75.38
2017-01-02T04:42:08.874Z,75.70
2017-01-02T04:43:08.826Z,76.01
2017-01-02T04:44:08.735Z,76.00
2017-01-02T04:45:08.592Z,75.61
2017-01-02T04:46:08.422Z,75.83
2017-01-02T04:47:08.073Z,75.46
2017-01-02T04:48:08.723Z,76.13
2017-01-02T04:49:08.747Z,76.47
2017-01-02T04:50:08.659Z,76.66
2017-01-02T04:51:08.597Z,76.17
2017-01-02T04:52:08.569Z,76.47
2017-01-02T04:53:08.549Z,76.65
2017-01-02T04:54:08.537Z,76.63
2017-01-02T04:55:08.460Z,76.94
2017-01-02T04:56:08.389Z,76.71
2017-01-02T04:57:08.441Z,76.05
2017-01-02T04:58:08.377Z,75.85
2017-01-02T04:59:08.392Z,76.29
2017-01-02T05:00:08.281Z,76.46
2017-01-02T05:01:08.480Z,75.84
2017-01-02T05:02:08.370Z,76.85
2017-01-02T05:03:08.270Z,76.53
2017-01-02T05:04:08.307Z,75.32
2017-01-02T05:05:08.303Z,75.68
2017-01-02T05:06:08.183Z,75.89
2017-01-02T05:07:08.130Z,75.52
2017-01-02T05:08:08.000Z,76.35
2017-01-02T05:09:08.078Z,76.72
2017-01-02T05:10:08.029Z,76.26
2017-01-02T05:11:07.985Z,76.10
2017-01-02T05:12:07.969Z,75.86
2017-01-02T05:13:07.967Z,76.83
2017-01-02T05:14:07.946Z,76.35
2017-01-02T05:15:08.050Z,75.78
2017-01-02T05:16:08.079Z,77.11
2017-01-02T05:17:08.178Z,77.40
2017-01-02T05:18:08.129Z,77.05
2017-01-02T05:19:08.224Z,76.37
2017-01-02T05:20:08.181Z,76.42
2017-01-02T05:21:07.989Z,77.06
2017-01-02T05:22:08.137Z,76.39
2017-01-02T05:23:08.092Z,76.68
2017-01-02T05:24:08.181Z,76.98
2017-01-02T05:25:10.686Z,76.20
2017-01-02T05:26:08.243Z,76.15
2017-01-02T05:27:08.449Z,76.41
2017-01-02T05:28:08.323Z,76.02
2017-01-02T05:29:08.311Z,75.66
2017-01-02T05:30:08.346Z,76.28
2017-01-02T05:31:08.468Z,76.15
2017-01-02T05:32:08.544Z,76.30
2017-01-02T05:33:08.443Z,76.43
2017-01-02T05:34:08.420Z,77.13
2017-01-02T05:35:08.435Z,77.07
2017-01-02T05:36:08.315Z,76.77
2017-01-02T05:37:08.335Z,76.71
2017-01-02T05:38:08.295Z,76.30
2017-01-02T05:39:08.215Z,76.09
2017-01-02T05:40:08.240Z,76.25
2017-01-02T05:41:08.256Z,76.32
2017-01-02T05:42:08.233Z,76.52
2017-01-02T05:43:08.146Z,77.17
2017-01-02T05:44:08.076Z,77.25
2017-01-02T05:45:08.004Z,76.94
2017-01-02T05:46:07.964Z,76.54
2017-01-02T05:47:07.963Z,76.60
2017-01-02T05:48:07.984Z,76.32
2017-01-02T05:49:07.959Z,76.78
2017-01-02T05:50:07.964Z,76.64
2017-01-02T05:51:07.984Z,77.46
2017-01-02T05:52:07.994Z,77.60
2017-01-02T05:53:07.943Z,77.88
2017-01-02T05:54:07.979Z,77.07
2017-01-02T05:55:07.955Z,77.12
2017-01-02T05:56:07.908Z,76.13
2017-01-02T05:57:08.829Z,76.24
2017-01-02T05:58:08.705Z,75.80
2017-01-02T05:59:08.663Z,76.07
2017-01-02T06:00:08.621Z,76.96
2017-01-02T06:01:08.497Z,77.07
2017-01-02T06:02:27.923Z,76.78
2017-01-02T06:03:09.000Z,76.90
2017-01-02T06:04:07.963Z,77.31
2017-01-02T06:05:08.000Z,76.97
2017-01-02T06:06:07.922Z,77.71
2017-01-02T06:07:08.841Z,77.47
2017-01-02T06:08:08.706Z,78.13
2017-01-02T06:09:08.621Z,79.01
2017-01-02T06:10:08.646Z,78.46
2017-01-02T06:11:08.652Z,78.06
2017-01-02T06:12:08.542Z,77.07
2017-01-02T06:13:08.426Z,76.88
2017-01-02T06:14:08.351Z,77.11
2017-01-02T06:15:08.251Z,77.65
2017-01-02T06:16:08.265Z,77.51
2017-01-02T06:17:08.302Z,77.60
2017-01-02T06:18:08.217Z,78.24
2017-01-02T06:19:08.214Z,78.27
2017-01-02T06:20:08.238Z,77.64
2017-01-02T06:21:08.251Z,78.08
2017-01-02T06:22:08.291Z,77.68
2017-01-02T06:23:08.144Z,78.53
2017-01-02T06:24:08.141Z,78.35
2017-01-02T06:25:08.124Z,77.45
2017-01-02T06:26:08.050Z,77.50
2017-01-02T06:27:08.057Z,77.46
2017-01-02T06:28:17.549Z,77.50
2017-01-02T06:29:08.506Z,77.94
2017-01-02T06:30:08.378Z,78.12
2017-01-02T06:31:08.367Z,78.04
2017-01-02T06:32:08.208Z,78.18
2017-01-02T06:33:08.185Z,78.05
2017-01-02T06:34:08.177Z,77.40
2017-01-02T06:35:08.086Z,78.62
2017-01-02T06:36:08.131Z,78.33
2017-01-02T06:37:08.057Z,78.05
2017-01-02T06:38:08.067Z,77.99
2017-01-02T06:39:08.061Z,78.21
2017-01-02T06:40:08.057Z,78.31
2017-01-02T06:41:07.975Z,78.50
2017-01-02T06:42:07.913Z,78.79
2017-01-02T06:43:08.934Z,79.36
2017-01-02T06:44:07.839Z,78.71
2017-01-02T06:45:08.779Z,78.52
2017-01-02T06:46:08.287Z,78.97
2017-01-02T06:47:08.288Z,77.71
2017-01-02T06:48:08.336Z,77.42
2017-01-02T06:49:15.942Z,77.49
2017-01-02T06:50:07.943Z,77.93
2017-01-02T06:51:08.079Z,78.08
2017-01-02T06:52:08.037Z,78.05
2017-01-02T06:53:08.077Z,78.43
2017-01-02T06:54:08.095Z,77.73
2017-01-02T06:55:08.149Z,77.30
2017-01-02T06:56:08.198Z,77.13
2017-01-02T06:57:08.217Z,77.15
2017-01-02T06:58:08.650Z,77.31
2017-01-02T06:59:08.670Z,78.29
2017-01-02T07:00:08.740Z,78.18
2017-01-02T07:01:08.668Z,77.85
2017-01-02T07:02:08.598Z,78.00
2017-01-02T07:03:08.600Z,78.21
2017-01-02T07:04:08.553Z,77.41
2017-01-02T07:05:08.589Z,77.67
2017-01-02T07:06:08.447Z,77.63
2017-01-02T07:07:08.383Z,78.41
2017-01-02T07:08:08.411Z,77.90
2017-01-02T07:09:08.389Z,78.60
2017-01-02T07:10:08.475Z,77.98
2017-01-02T07:11:08.436Z,77.59
2017-01-02T07:12:08.417Z,77.35
2017-01-02T07:13:08.453Z,77.77
2017-01-02T07:14:08.460Z,77.57
2017-01-02T07:15:08.379Z,77.27
2017-01-02T07:16:08.259Z,77.36
2017-01-02T07:17:08.274Z,77.84
2017-01-02T07:18:08.227Z,77.63
2017-01-02T07:19:08.183Z,77.90
2017-01-02T07:20:08.286Z,77.60
2017-01-02T07:21:08.320Z,76.66
2017-01-02T07:22:08.291Z,77.02
2017-01-02T07:23:08.279Z,76.93
2017-01-02T07:24:08.177Z,76.85
2017-01-02T07:25:08.123Z,76.94
2017-01-02T07:26:08.183Z,76.60
2017-01-02T07:27:08.198Z,76.70
2017-01-02T07:28:08.122Z,76.93
2017-01-02T07:29:08.038Z,77.46
2017-01-02T07:30:07.981Z,77.20
2017-01-02T07:31:07.959Z,77.02
2017-01-02T07:32:07.903Z,77.22
2017-01-02T07:33:08.828Z,76.94
2017-01-02T07:34:08.694Z,78.09
2017-01-02T07:35:08.688Z,77.61
2017-01-02T07:36:08.500Z,77.56
2017-01-02T07:37:08.428Z,78.08
2017-01-02T07:38:08.411Z,77.47
2017-01-02T07:39:08.428Z,77.17
2017-01-02T07:40:08.346Z,77.08
2017-01-02T07:41:08.324Z,77.30
2017-01-02T07:42:08.224Z,77.33
2017-01-02T07:43:08.106Z,77.66
2017-01-02T07:44:08.075Z,77.41
2017-01-02T07:45:08.077Z,78.01
2017-01-02T07:46:07.994Z,77.47
2017-01-02T07:47:07.579Z,77.21
2017-01-02T07:48:08.652Z,77.63
2017-01-02T07:49:08.588Z,77.90
2017-01-02T07:50:08.565Z,78.24
2017-01-02T07:51:08.533Z,78.02
2017-01-02T07:52:08.404Z,77.40
2017-01-02T07:53:08.343Z,77.60
2017-01-02T07:54:08.260Z,77.67
2017-01-02T07:55:08.301Z,77.30
2017-01-02T07:56:08.246Z,77.63
2017-01-02T07:57:08.302Z,77.59
2017-01-02T07:58:08.233Z,77.84
2017-01-02T07:59:08.199Z,77.61
2017-01-02T08:00:08.187Z,77.98
2017-01-02T08:01:07.991Z,77.48
2017-01-02T08:02:08.024Z,78.17
2017-01-02T08:03:08.054Z,78.28
2017-01-02T08:04:08.026Z,78.37
2017-01-02T08:05:07.998Z,78.18
2017-01-02T08:06:07.921Z,77.61
2017-01-02T08:07:08.686Z,77.71
2017-01-02T08:08:08.733Z,77.71
2017-01-02T08:09:08.689Z,78.02
2017-01-02T08:10:08.524Z,78.31
2017-01-02T08:11:08.398Z,77.67
2017-01-02T08:12:08.396Z,77.97
2017-01-02T08:13:08.437Z,78.21
2017-01-02T08:14:08.325Z,78.35
2017-01-02T08:15:08.246Z,77.93
2017-01-02T08:16:08.205Z,77.87
2017-01-02T08:17:08.217Z,78.02
2017-01-02T08:18:08.223Z,78.16
2017-01-02T08:19:08.156Z,78.48
2017-01-02T08:20:08.154Z,78.36
2017-01-02T08:21:08.187Z,78.39
2017-01-02T08:22:08.185Z,78.42
2017-01-02T08:23:08.172Z,78.21
2017-01-02T08:24:08.158Z,78.73
2017-01-02T08:25:08.115Z,79.12
2017-01-02T08:26:08.138Z,78.89
2017-01-02T08:27:08.185Z,78.69
2017-01-02T08:28:08.062Z,78.60
2017-01-02T08:29:08.137Z,79.59
2017-01-02T08:30:08.416Z,79.55
2017-01-02T08:31:08.467Z,79.13
2017-01-02T08:32:08.468Z,79.06
2017-01-02T08:33:08.470Z,78.86
2017-01-02T08:34:08.403Z,80.90
2017-01-02T08:35:08.336Z,81.00
2017-01-02T08:36:08.209Z,81.01
2017-01-02T08:37:08.154Z,81.02
2017-01-02T08:38:08.188Z,82.22
2017-01-02T08:39:08.749Z,82.52
2017-01-02T08:40:08.738Z,82.28
2017-01-02T08:41:08.650Z,82.24
2017-01-02T08:42:08.555Z,82.65
2017-01-02T08:43:08.492Z,82.27
2017-01-02T08:44:08.558Z,82.29
2017-01-02T08:45:08.619Z,81.96
2017-01-02T08:46:08.513Z,81.87
2017-01-02T08:47:08.459Z,82.12
2017-01-02T08:48:08.365Z,81.81
2017-01-02T08:49:08.329Z,82.65
2017-01-02T08:50:08.376Z,83.36
2017-01-02T08:51:08.359Z,83.55
2017-01-02T08:52:08.347Z,83.62
2017-01-02T08:53:08.309Z,83.51
2017-01-02T08:54:08.220Z,83.51
2017-01-02T08:55:08.130Z,84.26
2017-01-02T08:56:08.148Z,83.67
2017-01-02T08:57:08.286Z,84.34
2017-01-02T08:58:08.158Z,84.09
2017-01-02T08:59:08.035Z,84.45
2017-01-02T09:00:08.410Z,84.02
2017-01-02T09:01:08.397Z,83.65
2017-01-02T09:02:08.321Z,84.09
2017-01-02T09:03:08.381Z,84.15
2017-01-02T09:04:08.349Z,84.46
2017-01-02T09:05:08.335Z,84.34
2017-01-02T09:06:08.303Z,84.05
2017-01-02T09:07:08.244Z,83.90
2017-01-02T09:08:08.169Z,83.91
2017-01-02T09:09:08.158Z,83.82
2017-01-02T09:10:07.796Z,83.83
2017-01-02T09:11:08.141Z,83.84
2017-01-02T09:12:08.211Z,84.14
2017-01-02T09:13:08.218Z,84.82
2017-01-02T09:14:08.419Z,85.28
2017-01-02T09:15:08.436Z,85.21
2017-01-02T09:16:08.324Z,85.14
2017-01-02T09:17:08.390Z,86.86
2017-01-02T09:18:08.480Z,87.00
2017-01-02T09:19:08.773Z,85.92
2017-01-02T09:20:08.734Z,86.18
2017-01-02T09:21:08.847Z,85.54
2017-01-02T09:22:08.771Z,85.50
2017-01-02T09:23:08.764Z,85.84
2017-01-02T09:24:08.728Z,85.87
2017-01-02T09:25:08.689Z,86.25
2017-01-02T09:26:08.800Z,86.76
2017-01-02T09:27:08.954Z,87.52
2017-01-02T09:28:08.039Z,85.99
2017-01-02T09:29:08.070Z,86.15
2017-01-02T09:30:08.093Z,85.76
2017-01-02T09:31:09.530Z,85.37
2017-01-02T09:32:08.656Z,86.36
2017-01-02T09:33:08.577Z,87.49
2017-01-02T09:34:08.587Z,86.82
2017-01-02T09:35:08.571Z,85.78
2017-01-02T09:36:08.383Z,85.86
2017-01-02T09:37:08.378Z,85.98
2017-01-02T09:38:08.278Z,86.18
2017-01-02T09:39:08.225Z,85.44
2017-01-02T09:40:08.175Z,85.55
2017-01-02T09:41:07.954Z,85.36
2017-01-02T09:42:08.149Z,88.11
2017-01-02T09:43:08.264Z,87.82
2017-01-02T09:44:08.359Z,87.25
2017-01-02T09:45:09.457Z,86.88
2017-01-02T09:46:08.439Z,87.54
2017-01-02T09:47:08.550Z,87.87
2017-01-02T09:48:08.481Z,87.72
2017-01-02T09:49:08.536Z,88.13
2017-01-02T09:50:08.511Z,88.01
2017-01-02T09:51:08.468Z,87.52
2017-01-02T09:52:08.531Z,86.73
2017-01-02T09:53:08.575Z,86.29
2017-01-02T09:54:08.549Z,86.67
2017-01-02T09:55:08.524Z,86.63
2017-01-02T09:56:08.531Z,87.69
2017-01-02T09:57:08.561Z,87.28
2017-01-02T09:58:08.502Z,86.77
2017-01-02T09:59:08.324Z,87.27
2017-01-02T10:00:08.608Z,87.03
2017-01-02T10:01:09.041Z,86.50
2017-01-02T10:02:08.120Z,85.97
2017-01-02T10:03:08.103Z,86.07
2017-01-02T10:04:07.984Z,86.79
2017-01-02T10:05:07.971Z,87.16
2017-01-02T10:06:07.949Z,86.56
2017-01-02T10:07:08.020Z,87.53
2017-01-02T10:08:08.051Z,87.48
2017-01-02T10:09:08.172Z,87.04
2017-01-02T10:10:08.131Z,86.33
2017-01-02T10:11:08.178Z,86.62
2017-01-02T10:12:08.193Z,86.17
2017-01-02T10:13:08.142Z,85.79
2017-01-02T10:14:08.065Z,86.78
2017-01-02T10:15:08.039Z,86.38
2017-01-02T10:16:08.073Z,86.15
2017-01-02T10:17:08.308Z,85.55
2017-01-02T10:18:08.302Z,85.74
2017-01-02T10:19:08.293Z,86.39
2017-01-02T10:20:08.335Z,86.41
2017-01-02T10:21:08.266Z,86.89
2017-01-02T10:22:08.389Z,86.64
2017-01-02T10:23:08.409Z,86.78
2017-01-02T10:24:08.402Z,86.50
2017-01-02T10:25:08.423Z,86.35
2017-01-02T10:26:08.464Z,85.89
2017-01-02T10:27:08.611Z,86.53
2017-01-02T10:28:08.637Z,86.60
2017-01-02T10:29:08.696Z,86.06
2017-01-02T10:30:08.746Z,85.86
2017-01-02T10:31:08.759Z,85.65
2017-01-02T10:32:08.753Z,86.45
2017-01-02T10:33:09.272Z,86.12
2017-01-02T10:34:08.251Z,85.94
2017-01-02T10:35:08.393Z,85.99
2017-01-02T10:36:08.298Z,85.09
2017-01-02T10:37:08.294Z,86.04
2017-01-02T10:38:08.432Z,87.04
2017-01-02T10:39:08.392Z,86.64
2017-01-02T10:40:08.848Z,86.43
2017-01-02T10:41:08.741Z,86.95
2017-01-02T10:42:08.718Z,86.83
2017-01-02T10:43:08.828Z,85.98
2017-01-02T10:44:08.842Z,85.33
2017-01-02T10:45:08.905Z,85.98
2017-01-02T10:46:08.531Z,85.99
2017-01-02T10:47:09.062Z,86.59
2017-01-02T10:48:08.355Z,86.27
2017-01-02T10:49:08.355Z,86.44
2017-01-02T10:50:08.423Z,86.19
2017-01-02T10:51:08.478Z,86.17
2017-01-02T10:52:08.522Z,86.91
2017-01-02T10:53:08.524Z,85.89
2017-01-02T10:54:08.523Z,85.39
2017-01-02T10:55:08.453Z,86.01
2017-01-02T10:56:08.347Z,87.86
2017-01-02T10:57:08.388Z,87.89
2017-01-02T10:58:17.911Z,87.93
2017-01-02T10:59:08.061Z,87.12
2017-01-02T11:00:08.292Z,87.17
2017-01-02T11:01:08.319Z,86.45
2017-01-02T11:02:08.440Z,86.55
2017-01-02T11:03:08.376Z,86.75
2017-01-02T11:04:08.349Z,86.85
2017-01-02T11:05:08.467Z,86.73
2017-01-02T11:06:08.545Z,86.81
2017-01-02T11:07:08.588Z,86.69
2017-01-02T11:08:08.755Z,87.52
2017-01-02T11:09:08.829Z,88.45
2017-01-02T11:10:08.782Z,88.90
2017-01-02T11:11:08.696Z,89.38
2017-01-02T11:12:08.720Z,90.78
2017-01-02T11:13:09.560Z,88.08
2017-01-02T11:14:08.556Z,88.28
2017-01-02T11:15:08.536Z,88.78
2017-01-02T11:16:08.515Z,88.50
2017-01-02T11:17:08.669Z,87.07
2017-01-02T11:18:08.665Z,86.81
2017-01-02T11:19:08.605Z,87.47
2017-01-02T11:20:08.607Z,86.75
2017-01-02T11:21:08.506Z,87.23
2017-01-02T11:22:08.553Z,87.66
2017-01-02T11:23:08.591Z,87.21
2017-01-02T11:24:08.595Z,87.54
2017-01-02T11:25:08.474Z,86.66
2017-01-02T11:26:08.474Z,86.28
2017-01-02T11:27:08.505Z,85.67
2017-01-02T11:28:08.384Z,86.00
2017-01-02T11:29:07.992Z,85.51
2017-01-02T11:30:08.762Z,84.84
2017-01-02T11:31:09.185Z,85.58
2017-01-02T11:32:08.220Z,85.29
2017-01-02T11:33:27.620Z,85.64
2017-01-02T11:34:08.645Z,85.51
2017-01-02T11:35:08.644Z,85.96
2017-01-02T11:36:08.654Z,86.37
2017-01-02T11:37:08.608Z,87.64
2017-01-02T11:38:08.605Z,87.28
2017-01-02T11:39:08.490Z,87.43
2017-01-02T11:40:08.619Z,87.12
2017-01-02T11:41:08.582Z,85.73
2017-01-02T11:42:08.403Z,85.28
2017-01-02T11:43:08.315Z,84.47
2017-01-02T11:44:08.169Z,84.41
2017-01-02T11:45:08.259Z,83.55
2017-01-02T11:46:08.153Z,82.87
2017-01-02T11:47:08.388Z,82.30
2017-01-02T11:48:08.781Z,81.90
2017-01-02T11:49:08.723Z,81.09
2017-01-02T11:50:08.613Z,81.46
2017-01-02T11:51:08.663Z,81.27
2017-01-02T11:52:08.607Z,81.37
2017-01-02T11:53:08.516Z,82.08
2017-01-02T11:54:08.485Z,81.63
2017-01-02T11:55:08.473Z,82.43
2017-01-02T11:56:08.471Z,82.60
2017-01-02T11:57:08.521Z,82.58
2017-01-02T11:58:17.980Z,82.23
2017-01-02T11:59:21.700Z,81.97
2017-01-02T12:00:08.841Z,82.00
2017-01-02T12:01:08.748Z,82.35
2017-01-02T12:02:08.742Z,82.64
2017-01-02T12:03:08.669Z,82.01
2017-01-02T12:04:08.567Z,82.08
2017-01-02T12:05:08.737Z,81.94
2017-01-02T12:06:08.808Z,81.51
2017-01-02T12:07:08.530Z,81.81
2017-01-02T12:08:08.602Z,82.26
2017-01-02T12:09:07.853Z,82.23
2017-01-02T12:10:08.180Z,82.22
2017-01-02T12:11:09.821Z,82.65
2017-01-02T12:12:08.707Z,81.67
2017-01-02T12:13:08.587Z,80.61
2017-01-02T12:14:42.338Z,80.25
2017-01-02T12:15:09.037Z,80.80
2017-01-02T12:16:42.584Z,81.23
2017-01-02T12:17:08.194Z,81.28
2017-01-02T12:18:13.618Z,81.51
2017-01-02T12:19:08.631Z,81.23
2017-01-02T12:20:08.185Z,81.17
2017-01-02T12:21:08.090Z,81.63
2017-01-02T12:22:07.759Z,80.96
2017-01-02T12:23:08.581Z,80.53
2017-01-02T12:24:08.192Z,80.70
2017-01-02T12:25:08.627Z,80.01
2017-01-02T12:26:09.041Z,79.65
2017-01-02T12:27:07.999Z,80.16
2017-01-02T12:28:08.192Z,79.86
2017-01-02T12:29:08.219Z,80.12
2017-01-02T12:30:08.219Z,80.07
2017-01-02T12:31:08.243Z,80.70
2017-01-02T12:32:08.216Z,81.18
2017-01-02T12:33:08.706Z,80.24
2017-01-02T12:34:08.321Z,81.06
2017-01-02T12:35:08.902Z,80.98
2017-01-02T12:37:02.917Z,81.03
2017-01-02T12:37:08.157Z,80.87
2017-01-02T12:38:08.214Z,80.83
2017-01-02T12:39:08.406Z,80.59
2017-01-02T12:40:08.440Z,80.34
2017-01-02T12:41:07.961Z,80.94
2017-01-02T12:42:08.373Z,81.15
2017-01-02T12:43:08.268Z,81.20
2017-01-02T12:44:07.973Z,81.38
2017-01-02T12:45:08.343Z,81.19
2017-01-02T12:46:08.381Z,81.16
2017-01-02T12:47:08.414Z,80.80
2017-01-02T12:48:08.049Z,80.83
2017-01-02T12:49:08.812Z,80.94
2017-01-02T12:50:27.980Z,80.71
2017-01-02T12:51:07.951Z,80.71
2017-01-02T12:52:07.980Z,80.90